Terminal Aerodrome Forecast
Issued by NWS Hastings, NE

Home | Current Version | Previous Version | Text Only | Print | Product List | Glossary On
Versions: 1 2 3 4 5 6 7 8 9 10 11 12 13 14 15 16 17 18 19 20 21 22 23 24 25 26
000
FTUS43 KGID 232321
TAFGRI
TAF
KGRI 232321Z 2400/2424 21009KT P6SM SCT250
     FM241100 24010KT P6SM SCT250 WS007/30040KT
     FM241500 27015KT P6SM SCT250
     FM241700 31022G31KT P6SM SCT250=

USA.gov is the U.S. government's official web portal to all federal, state and local government web resources and services.